Time;durP1;ratioP1;P1;durP2;ratioP2;P2;SDS_P1;SDS_P2;PMS_P1;PMS_P2;Temp;Humidity;BMP_temperature;BMP_pressure;BME280_temperature;BME280_humidity;BME280_pressure;Samples;Min_cycle;Max_cycle;Signal;HPM_P1;HPM_P2
2024/02/18 00:04:07;;;;;;;3.60;3.30;;;;;;;4.22;82.73;101466.15;218120;1259;140675;-69
2024/02/18 00:09:14;;;;;;;2.00;1.60;;;;;;;4.18;82.71;101474.42;216916;1262;140249;-68
2024/02/18 00:14:19;;;;;;;2.30;2.20;;;;;;;4.15;82.94;101481.39;217152;1259;140199;-70
2024/02/18 00:19:23;;;;;;;2.70;1.70;;;;;;;4.11;82.92;101485.84;217484;1262;140931;-69
2024/02/18 00:24:27;;;;;;;1.70;1.60;;;;;;;4.07;82.86;101491.56;217174;1259;141042;-69
2024/02/18 00:29:31;;;;;;;1.70;1.60;;;;;;;4.03;82.86;101491.85;219631;1258;140518;-70
2024/02/18 00:34:35;;;;;;;2.60;1.90;;;;;;;4.00;82.77;101493.30;218197;1258;140818;-69
2024/02/18 00:39:39;;;;;;;1.80;1.60;;;;;;;4.00;82.75;101501.02;217281;1259;140428;-70
2024/02/18 00:44:44;;;;;;;1.80;1.30;;;;;;;3.97;82.50;101506.05;217990;1262;140491;-69
2024/02/18 00:49:49;;;;;;;2.50;1.30;;;;;;;3.90;81.90;101503.05;217472;1259;152705;-68
2024/02/18 00:54:53;;;;;;;1.80;1.40;;;;;;;3.81;81.74;101510.62;218629;1259;140180;-68
2024/02/18 00:59:58;;;;;;;1.20;1.20;;;;;;;3.76;81.43;101516.36;217289;1262;141930;-69
2024/02/18 01:05:02;;;;;;;1.50;1.40;;;;;;;3.73;81.36;101512.42;219627;1259;140815;-74
2024/02/18 01:10:09;;;;;;;1.80;1.50;;;;;;;3.72;80.94;101520.79;217842;1259;140499;-69
2024/02/18 01:15:13;;;;;;;3.50;1.40;;;;;;;3.70;80.65;101520.23;216905;1259;141117;-68
2024/02/18 01:20:18;;;;;;;1.90;1.20;;;;;;;3.66;80.18;101516.09;218083;1259;140295;-67
2024/02/18 01:25:22;;;;;;;0.90;0.90;;;;;;;3.61;80.08;101514.61;217301;1261;139830;-70
2024/02/18 01:30:27;;;;;;;0.70;0.70;;;;;;;3.59;79.92;101513.73;216911;1262;139916;-69
2024/02/18 01:35:30;;;;;;;0.80;0.80;;;;;;;3.57;79.72;101515.96;218091;1259;140479;-68
2024/02/18 01:40:35;;;;;;;2.30;1.60;;;;;;;3.53;79.34;101517.02;217618;1259;140788;-68
2024/02/18 01:45:39;;;;;;;1.40;0.80;;;;;;;3.47;79.29;101518.40;217320;1260;140058;-70
2024/02/18 01:50:45;;;;;;;1.70;0.90;;;;;;;3.45;79.16;101522.64;217444;1259;140038;-69
2024/02/18 01:55:50;;;;;;;2.00;0.90;;;;;;;3.46;79.24;101528.77;217233;1259;139979;-68
2024/02/18 02:00:55;;;;;;;0.70;0.70;;;;;;;3.46;79.17;101535.10;217451;1262;139754;-70
2024/02/18 02:06:02;;;;;;;0.50;0.50;;;;;;;3.44;78.97;101531.41;218408;1261;140581;-69
2024/02/18 02:11:05;;;;;;;1.20;0.90;;;;;;;3.41;78.79;101533.77;217045;1259;139995;-66
2024/02/18 02:16:10;;;;;;;0.60;0.60;;;;;;;3.40;78.73;101541.05;217170;1259;140118;-70
2024/02/18 02:21:16;;;;;;;0.60;0.60;;;;;;;3.40;78.34;101537.58;219589;1258;139903;-71
2024/02/18 02:26:21;;;;;;;0.60;0.60;;;;;;;3.38;78.15;101540.39;219130;1257;140785;-70
2024/02/18 02:31:26;;;;;;;1.80;1.00;;;;;;;3.33;77.67;101533.27;219480;1256;140101;-72
2024/02/18 02:36:30;;;;;;;1.10;1.10;;;;;;;3.28;77.41;101537.33;217413;1257;140229;-72
2024/02/18 02:41:35;;;;;;;1.20;1.00;;;;;;;3.27;77.49;101545.27;219642;1257;140546;-71
2024/02/18 02:46:39;;;;;;;1.80;1.70;;;;;;;3.30;77.54;101547.29;218083;1257;140384;-74
2024/02/18 02:51:48;;;;;;;1.50;1.20;;;;;;;3.33;77.35;101552.66;217417;1259;139796;-73
2024/02/18 02:56:53;;;;;;;2.00;1.00;;;;;;;3.33;77.27;101554.36;217166;1258;141599;-73
2024/02/18 03:01:58;;;;;;;1.60;1.50;;;;;;;3.34;77.23;101553.21;217174;1259;139916;-73
2024/02/18 03:07:02;;;;;;;1.60;1.50;;;;;;;3.32;76.93;101556.44;217286;1257;139802;-72
2024/02/18 03:12:12;;;;;;;1.50;1.40;;;;;;;3.31;76.85;101552.70;216765;1261;139882;-73
2024/02/18 03:17:16;;;;;;;1.70;1.30;;;;;;;3.30;76.90;101555.55;217552;1258;139738;-71
2024/02/18 03:22:22;;;;;;;1.10;1.10;;;;;;;3.28;76.83;101553.81;216868;1261;140085;-70
2024/02/18 03:27:25;;;;;;;1.70;1.60;;;;;;;3.26;76.75;101562.58;218255;1258;140495;-71
2024/02/18 03:32:39;;;;;;;1.70;1.30;;;;;;;3.25;76.81;101572.20;218647;1258;140195;-69
2024/02/18 03:37:44;;;;;;;5.00;1.60;;;;;;;3.22;76.69;101578.13;217156;1257;139973;-72
2024/02/18 03:42:48;;;;;;;1.50;1.40;;;;;;;3.17;76.28;101586.67;217602;1257;140131;-68
2024/02/18 03:47:53;;;;;;;1.80;1.40;;;;;;;3.15;76.80;101587.20;217501;1257;140037;-69
2024/02/18 03:52:58;;;;;;;1.40;1.40;;;;;;;3.15;76.73;101587.86;217884;1257;140372;-69
2024/02/18 03:58:02;;;;;;;3.10;2.90;;;;;;;3.13;76.50;101586.84;217238;1258;140243;-68
2024/02/18 04:03:05;;;;;;;1.10;1.10;;;;;;;3.10;76.31;101591.14;217595;1258;140012;-68
2024/02/18 04:08:10;;;;;;;2.80;1.80;;;;;;;3.08;76.75;101593.80;217019;1257;140042;-68
2024/02/18 04:13:15;;;;;;;2.10;2.00;;;;;;;3.08;76.60;101588.03;218375;1259;140164;-69
2024/02/18 04:18:19;;;;;;;2.70;2.50;;;;;;;3.09;76.40;101594.23;216911;1258;140846;-72
2024/02/18 04:23:23;;;;;;;1.60;1.50;;;;;;;3.08;76.57;101595.19;216765;1258;139851;-72
2024/02/18 04:28:28;;;;;;;1.80;1.60;;;;;;;3.08;76.71;101596.98;216677;1257;140211;-71
2024/02/18 04:33:32;;;;;;;2.50;2.30;;;;;;;3.06;77.00;101592.05;219731;1257;142234;-71
2024/02/18 04:38:37;;;;;;;2.10;1.30;;;;;;;3.06;76.87;101595.02;217789;1257;293255;-71
2024/02/18 04:43:41;;;;;;;2.30;2.10;;;;;;;3.08;76.82;101593.41;217307;1260;140636;-71
2024/02/18 04:48:47;;;;;;;2.00;1.90;;;;;;;3.09;76.84;101593.72;218716;1259;140018;-70
2024/02/18 04:53:51;;;;;;;1.80;1.40;;;;;;;3.09;76.89;101591.61;217274;1257;141060;-70
2024/02/18 04:58:56;;;;;;;2.00;1.90;;;;;;;3.10;76.80;101591.55;218020;1257;140121;-70
2024/02/18 05:04:00;;;;;;;2.30;1.50;;;;;;;3.08;76.78;101585.21;216932;1261;140858;-71
2024/02/18 05:09:05;;;;;;;3.00;2.00;;;;;;;3.06;76.85;101589.11;217540;1259;141999;-70
2024/02/18 05:14:10;;;;;;;3.50;2.00;;;;;;;3.03;76.94;101589.01;217852;1258;140523;-70
2024/02/18 05:19:16;;;;;;;2.20;1.70;;;;;;;3.00;76.81;101588.17;217776;1259;139787;-71
2024/02/18 05:24:21;;;;;;;1.50;1.30;;;;;;;2.98;77.08;101591.70;216894;1260;140767;-70
2024/02/18 05:29:26;;;;;;;3.10;2.50;;;;;;;2.92;77.12;101594.17;216994;1257;140732;-70
2024/02/18 05:34:31;;;;;;;4.00;2.10;;;;;;;2.90;77.52;101598.38;217981;1258;140757;-70
2024/02/18 05:39:36;;;;;;;2.50;1.70;;;;;;;2.89;77.49;101605.34;216936;1260;140118;-70
2024/02/18 05:44:42;;;;;;;2.30;2.10;;;;;;;2.89;77.63;101614.18;218252;1258;140044;-70
2024/02/18 05:49:47;;;;;;;3.30;2.90;;;;;;;2.88;77.92;101617.95;217189;1260;140328;-70
2024/02/18 05:54:52;;;;;;;2.70;2.20;;;;;;;2.82;78.16;101625.83;217034;1262;139917;-69
2024/02/18 05:59:57;;;;;;;3.40;2.60;;;;;;;2.82;77.94;101631.66;218667;1260;139939;-71
2024/02/18 06:05:01;;;;;;;4.00;3.60;;;;;;;2.83;77.91;101632.56;219423;1257;140410;-71
2024/02/18 06:10:06;;;;;;;5.60;3.80;;;;;;;2.86;77.70;101634.06;218715;1258;143010;-71
2024/02/18 06:15:12;;;;;;;3.90;3.10;;;;;;;2.90;77.85;101641.80;219801;1260;140543;-74
2024/02/18 06:20:20;;;;;;;3.70;3.00;;;;;;;2.93;77.93;101637.98;219851;1259;140633;-73
2024/02/18 06:25:24;;;;;;;3.70;3.40;;;;;;;2.94;77.75;101636.55;218678;1259;141800;-73
2024/02/18 06:30:29;;;;;;;3.80;2.30;;;;;;;2.96;77.79;101648.65;217118;1260;139981;-71
2024/02/18 06:35:33;;;;;;;3.50;3.10;;;;;;;2.99;77.75;101652.19;217093;1261;139844;-72
2024/02/18 06:40:38;;;;;;;2.30;2.00;;;;;;;3.04;77.71;101646.47;216671;1260;140538;-73
2024/02/18 06:45:44;;;;;;;2.40;2.00;;;;;;;3.11;78.02;101654.33;218828;1258;140301;-72
2024/02/18 06:50:48;;;;;;;5.10;2.50;;;;;;;3.13;77.73;101659.42;218023;1259;140361;-72
2024/02/18 06:55:52;;;;;;;2.50;2.30;;;;;;;3.16;77.34;101657.71;217419;1259;140164;-72
2024/02/18 07:00:58;;;;;;;2.40;2.20;;;;;;;3.21;77.43;101657.93;216663;1259;139979;-72
2024/02/18 07:06:03;;;;;;;3.20;2.70;;;;;;;3.25;77.13;101671.13;216736;1260;141525;-72
2024/02/18 07:11:07;;;;;;;3.70;2.70;;;;;;;3.25;76.93;101677.60;216631;1257;142442;-70
2024/02/18 07:16:13;;;;;;;3.00;2.20;;;;;;;3.27;76.69;101674.05;216808;1259;139865;-70
2024/02/18 07:21:18;;;;;;;3.90;2.90;;;;;;;3.32;76.61;101672.58;217036;1259;142092;-72
2024/02/18 07:26:23;;;;;;;3.40;2.90;;;;;;;3.35;76.23;101677.05;216990;1259;139693;-72
2024/02/18 07:31:30;;;;;;;2.40;2.20;;;;;;;3.40;76.22;101673.91;217170;1259;139948;-70
2024/02/18 07:36:34;;;;;;;3.20;2.90;;;;;;;3.48;75.94;101677.79;216886;1259;139983;-70
2024/02/18 07:41:39;;;;;;;5.40;2.80;;;;;;;3.55;75.61;101674.18;217805;1259;140471;-70
2024/02/18 07:46:43;;;;;;;2.70;2.20;;;;;;;3.61;74.96;101678.17;216975;1260;140043;-70
2024/02/18 07:51:47;;;;;;;4.20;3.40;;;;;;;3.67;74.72;101676.31;216640;1257;140540;-70
2024/02/18 07:56:52;;;;;;;2.60;2.30;;;;;;;3.73;74.19;101678.07;218274;1260;140675;-70
2024/02/18 08:01:56;;;;;;;4.10;2.30;;;;;;;3.78;74.21;101682.33;216830;1261;140855;-71
2024/02/18 08:07:00;;;;;;;2.80;2.50;;;;;;;3.84;74.04;101689.05;216904;1262;140933;-69
2024/02/18 08:12:05;;;;;;;3.00;2.50;;;;;;;3.87;73.74;101691.70;217903;1262;139469;-70
2024/02/18 08:17:10;;;;;;;2.30;2.10;;;;;;;3.88;73.15;101698.17;217016;1258;140787;-72
2024/02/18 08:22:14;;;;;;;2.60;2.20;;;;;;;3.89;72.53;101692.06;216667;1259;139982;-69
2024/02/18 08:27:18;;;;;;;2.60;2.40;;;;;;;3.98;72.61;101686.64;219557;1257;140965;-72
2024/02/18 08:32:23;;;;;;;2.40;2.20;;;;;;;4.05;72.20;101676.64;217732;1259;139981;-71
2024/02/18 08:37:26;;;;;;;2.60;2.40;;;;;;;3.92;71.24;101668.16;216541;1262;139737;-73
2024/02/18 08:42:30;;;;;;;2.60;2.40;;;;;;;3.95;71.56;101671.80;216676;1259;139692;-70
2024/02/18 08:47:34;;;;;;;2.70;2.10;;;;;;;4.10;71.81;101671.63;216682;1262;140047;-69
2024/02/18 08:52:39;;;;;;;2.00;1.90;;;;;;;4.28;71.89;101664.39;217967;1259;141716;-72
2024/02/18 08:57:43;;;;;;;2.10;2.00;;;;;;;4.34;71.21;101669.22;217909;1260;140205;-74
2024/02/18 09:02:48;;;;;;;2.00;1.80;;;;;;;4.52;71.38;101679.69;217031;1262;140216;-72
2024/02/18 09:07:53;;;;;;;2.60;2.20;;;;;;;4.77;71.13;101682.23;216986;1261;140402;-72
2024/02/18 09:13:00;;;;;;;1.80;1.70;;;;;;;4.90;70.69;101681.64;216359;1262;140491;-72
2024/02/18 09:18:05;;;;;;;;;;;;;;;4.97;70.23;101686.53;217112;1260;141606;-71
2024/02/18 09:23:09;;;;;;;2.40;2.20;;;;;;;5.01;70.29;101682.45;217266;1262;126159;-70
2024/02/18 09:28:14;;;;;;;3.80;2.70;;;;;;;5.13;70.12;101683.91;217624;1257;140258;-70
2024/02/18 09:33:17;;;;;;;2.20;2.00;;;;;;;5.37;70.20;101684.31;217090;1261;141050;-72
2024/02/18 09:38:22;;;;;;;2.40;2.20;;;;;;;5.48;69.59;101680.03;216655;1260;140041;-70
2024/02/18 09:43:27;;;;;;;2.50;2.30;;;;;;;5.55;69.35;101672.11;217531;1260;140139;-72
2024/02/18 09:48:32;;;;;;;2.90;2.60;;;;;;;5.35;67.75;101669.52;217063;1260;139996;-70
2024/02/18 09:53:36;;;;;;;1.80;1.70;;;;;;;5.20;68.01;101665.73;217000;1262;140295;-70
2024/02/18 09:58:41;;;;;;;6.20;2.10;;;;;;;5.33;68.38;101665.83;216803;1261;140793;-70
2024/02/18 10:03:45;;;;;;;2.90;2.60;;;;;;;5.37;67.86;101660.38;218271;1259;140693;-72
2024/02/18 10:08:52;;;;;;;3.00;2.60;;;;;;;5.29;67.53;101656.41;219384;1258;141576;-71
2024/02/18 10:13:57;;;;;;;3.00;2.70;;;;;;;5.30;67.53;101648.71;217629;1258;140265;-71
2024/02/18 10:19:02;;;;;;;2.30;2.10;;;;;;;5.44;68.10;101643.98;219760;1258;140589;-71
2024/02/18 10:24:09;;;;;;;2.70;2.50;;;;;;;5.58;68.26;101643.76;218809;1260;140218;-69
2024/02/18 10:29:15;;;;;;;4.20;3.20;;;;;;;6.06;68.74;101638.64;218889;1257;140660;-71
2024/02/18 10:34:19;;;;;;;4.40;2.70;;;;;;;6.46;67.49;101628.98;218284;1259;140403;-70
2024/02/18 10:39:28;;;;;;;4.20;3.00;;;;;;;6.66;67.07;101615.77;216879;1261;140223;-71
2024/02/18 10:44:36;;;;;;;4.80;3.30;;;;;;;6.97;66.75;101601.17;218148;1261;140019;-70
2024/02/18 10:49:41;;;;;;;;;;;;;;;6.99;65.99;101595.59;217376;1261;139931;-71
2024/02/18 10:54:50;;;;;;;4.30;3.80;;;;;;;7.03;65.74;101581.98;217647;1259;126839;-72
2024/02/18 11:00:05;;;;;;;2.80;2.60;;;;;;;6.81;65.28;101574.39;217626;1257;140150;-71
2024/02/18 11:05:10;;;;;;;4.10;3.40;;;;;;;6.58;64.53;101560.20;217483;1262;139276;-70
2024/02/18 11:10:16;;;;;;;4.20;3.80;;;;;;;6.58;64.76;101548.62;217561;1261;140065;-70
2024/02/18 11:15:21;;;;;;;4.80;4.30;;;;;;;6.70;65.47;101545.11;217479;1262;140277;-71
2024/02/18 11:20:26;;;;;;;4.10;3.80;;;;;;;6.77;65.10;101540.49;216914;1262;139697;-71
2024/02/18 11:25:30;;;;;;;4.20;3.10;;;;;;;6.67;64.75;101529.54;217007;1257;139297;-71
2024/02/18 11:30:35;;;;;;;4.40;4.00;;;;;;;6.63;64.53;101524.73;217163;1263;141263;-71
2024/02/18 11:35:39;;;;;;;4.90;4.50;;;;;;;6.76;65.12;101530.13;216643;1262;139310;-69
2024/02/18 11:40:46;;;;;;;5.90;4.50;;;;;;;7.02;65.50;101524.48;216901;1262;139356;-71
2024/02/18 11:45:55;;;;;;;7.20;4.90;;;;;;;7.20;64.94;101514.20;217972;1257;140468;-73
2024/02/18 11:50:59;;;;;;;5.70;5.10;;;;;;;7.15;64.39;101499.27;217829;1261;141201;-72
2024/02/18 11:56:03;;;;;;;6.10;5.40;;;;;;;7.14;64.34;101493.86;218865;1260;138912;-71
2024/02/18 12:01:08;;;;;;;8.00;6.40;;;;;;;7.31;64.49;101486.39;218013;1262;221435;-73
2024/02/18 12:06:14;;;;;;;10.40;6.00;;;;;;;7.38;63.85;101477.72;216801;1262;139457;-71
2024/02/18 12:11:18;;;;;;;4.90;4.50;;;;;;;7.42;63.95;101482.37;216723;1263;139526;-72
2024/02/18 12:16:23;;;;;;;4.90;4.50;;;;;;;7.61;63.74;101472.28;217979;1262;140603;-72
2024/02/18 12:21:26;;;;;;;5.20;4.70;;;;;;;7.46;62.78;101470.42;219599;1257;140438;-71
2024/02/18 12:26:30;;;;;;;8.30;7.10;;;;;;;7.35;62.93;101468.95;219803;1258;139744;-71
2024/02/18 12:31:37;;;;;;;7.00;5.10;;;;;;;7.41;63.24;101447.84;219669;1257;138933;-71
2024/02/18 12:36:42;;;;;;;5.10;4.60;;;;;;;7.40;62.91;101451.23;218616;1260;139610;-72
2024/02/18 12:41:47;;;;;;;7.40;4.60;;;;;;;7.12;62.26;101442.09;218082;1257;140344;-70
2024/02/18 12:46:55;;;;;;;5.20;4.70;;;;;;;6.82;62.40;101444.34;217905;1262;140381;-71
2024/02/18 12:52:07;;;;;;;8.40;5.90;;;;;;;6.81;62.30;101438.05;217042;1260;139430;-70
2024/02/18 12:57:13;;;;;;;6.10;5.00;;;;;;;6.78;62.49;101431.70;216747;1262;139519;-70
2024/02/18 13:02:18;;;;;;;6.30;3.70;;;;;;;6.91;63.05;101425.88;217313;1260;140669;-71
2024/02/18 13:07:23;;;;;;;5.60;4.60;;;;;;;6.95;62.99;101411.66;216749;1263;139420;-71
2024/02/18 13:12:28;;;;;;;8.60;5.10;;;;;;;6.82;63.04;101422.97;216705;1263;139227;-71
2024/02/18 13:17:33;;;;;;;5.90;5.30;;;;;;;6.76;63.54;101414.44;216791;1262;139698;-70
2024/02/18 13:22:39;;;;;;;5.30;4.90;;;;;;;6.71;63.56;101407.90;216903;1258;141355;-73
2024/02/18 13:27:44;;;;;;;5.10;4.70;;;;;;;6.64;63.43;101403.21;217802;1262;139523;-73
2024/02/18 13:32:49;;;;;;;6.60;6.00;;;;;;;6.30;62.97;101401.09;217082;1262;140385;-71
2024/02/18 13:37:53;;;;;;;6.30;5.20;;;;;;;6.13;63.14;101392.35;216800;1263;140134;-71
2024/02/18 13:43:00;;;;;;;9.00;5.80;;;;;;;6.02;63.52;101388.28;218203;1257;140173;-71
2024/02/18 13:48:06;;;;;;;8.70;6.00;;;;;;;5.97;64.09;101386.81;218157;1257;140916;-70
2024/02/18 13:53:10;;;;;;;8.10;4.50;;;;;;;5.83;63.58;101379.94;216722;1258;139775;-69
2024/02/18 13:58:14;;;;;;;6.90;6.30;;;;;;;5.93;63.98;101371.30;216936;1260;138647;-69
2024/02/18 14:03:18;;;;;;;6.50;5.40;;;;;;;5.98;63.78;101366.64;219679;1257;150212;-72
2024/02/18 14:08:22;;;;;;;6.90;5.40;;;;;;;5.94;63.99;101353.70;217127;1258;140002;-71
2024/02/18 14:13:27;;;;;;;6.80;6.10;;;;;;;5.92;63.49;101345.42;217885;1258;140302;-70
2024/02/18 14:18:32;;;;;;;5.10;4.30;;;;;;;5.92;64.12;101336.05;217741;1262;140156;-70
2024/02/18 14:23:37;;;;;;;6.60;5.80;;;;;;;5.96;63.62;101325.74;216878;1261;139034;-70
2024/02/18 14:28:41;;;;;;;6.60;5.90;;;;;;;5.89;63.72;101316.05;217797;1257;139707;-70
2024/02/18 14:33:46;;;;;;;4.00;3.60;;;;;;;5.86;63.80;101309.36;218019;1257;139416;-67
2024/02/18 14:38:51;;;;;;;10.50;5.20;;;;;;;5.97;63.60;101303.73;217566;1257;139094;-69
2024/02/18 14:43:58;;;;;;;;;;;;;;;6.01;64.04;101297.48;218587;1258;140292;-69
2024/02/18 14:49:02;;;;;;;5.90;4.10;;;;;;;5.96;63.79;101295.20;217528;1258;125695;-69
2024/02/18 14:54:06;;;;;;;6.40;4.70;;;;;;;5.79;63.58;101292.10;218181;1257;140404;-70
2024/02/18 14:59:12;;;;;;;7.20;5.00;;;;;;;5.61;63.49;101277.77;218464;1257;140415;-73
2024/02/18 15:04:16;;;;;;;6.10;4.60;;;;;;;5.49;63.84;101278.08;217114;1258;139121;-70
2024/02/18 15:09:21;;;;;;;5.80;5.30;;;;;;;5.35;64.49;101274.80;217310;1260;139565;-73
2024/02/18 15:14:25;;;;;;;6.10;4.90;;;;;;;5.23;64.17;101275.73;218359;1257;140365;-74
2024/02/18 15:19:29;;;;;;;5.00;4.50;;;;;;;5.12;65.11;101269.23;217426;1258;139101;-72
2024/02/18 15:24:33;;;;;;;6.40;5.10;;;;;;;4.96;65.03;101266.93;217183;1257;141591;-72
2024/02/18 15:29:38;;;;;;;5.40;4.50;;;;;;;4.78;65.08;101264.44;218141;1257;139505;-71
2024/02/18 15:34:42;;;;;;;6.70;5.90;;;;;;;4.54;65.11;101262.55;217209;1259;139333;-69
2024/02/18 15:39:47;;;;;;;9.20;5.80;;;;;;;4.29;65.58;101256.15;217226;1262;140001;-71
2024/02/18 15:44:52;;;;;;;6.60;5.20;;;;;;;4.12;65.95;101253.37;218175;1257;140415;-73
2024/02/18 15:49:57;;;;;;;9.00;7.10;;;;;;;3.98;66.20;101252.10;218197;1257;140298;-74
2024/02/18 15:55:02;;;;;;;15.20;10.50;;;;;;;3.80;66.42;101244.65;218522;1257;140779;-70
2024/02/18 16:00:08;;;;;;;9.00;7.20;;;;;;;3.58;66.65;101236.15;219504;1257;140736;-69
2024/02/18 16:05:15;;;;;;;12.30;9.30;;;;;;;3.40;66.82;101228.95;217285;1257;220863;-67
2024/02/18 16:10:24;;;;;;;61.70;29.70;;;;;;;3.23;67.22;101227.27;218426;1257;140871;-68
2024/02/18 16:15:28;;;;;;;25.90;15.70;;;;;;;3.20;67.98;101231.70;219334;1257;140725;-69
2024/02/18 16:20:35;;;;;;;14.90;10.20;;;;;;;3.16;68.27;101230.69;218173;1258;140461;-69
2024/02/18 16:25:41;;;;;;;11.80;9.00;;;;;;;3.09;68.57;101232.10;218146;1261;142473;-68
2024/02/18 16:30:48;;;;;;;15.30;10.00;;;;;;;3.03;69.00;101225.98;218530;1259;140372;-72
2024/02/18 16:35:53;;;;;;;14.70;9.90;;;;;;;2.98;69.20;101227.50;217708;1260;140002;-68
2024/02/18 16:40:58;;;;;;;13.90;9.70;;;;;;;2.89;69.43;101216.30;217943;1257;820483;-69
2024/02/18 16:46:03;;;;;;;27.70;16.10;;;;;;;2.73;69.28;101209.95;218221;1257;139882;-73
2024/02/18 16:51:09;;;;;;;13.40;7.80;;;;;;;2.62;69.98;101206.40;217508;1261;140889;-74
2024/02/18 16:56:13;;;;;;;12.60;8.40;;;;;;;2.54;70.13;101205.46;218380;1257;141274;-69
2024/02/18 17:01:19;;;;;;;23.10;10.80;;;;;;;2.32;69.85;101191.38;217297;1257;139856;-69
2024/02/18 17:06:25;;;;;;;28.30;14.60;;;;;;;2.11;70.33;101172.69;218522;1258;140422;-70
2024/02/18 17:11:31;;;;;;;37.40;18.30;;;;;;;2.03;70.67;101165.95;217252;1257;140189;-67
2024/02/18 17:16:36;;;;;;;33.40;14.40;;;;;;;2.03;71.28;101166.99;217406;1258;140113;-70
2024/02/18 17:21:44;;;;;;;18.50;12.40;;;;;;;1.96;71.28;101155.36;217758;1257;140388;-68
2024/02/18 17:26:49;;;;;;;21.30;11.40;;;;;;;1.88;71.65;101155.21;217564;1257;140007;-69
2024/02/18 17:31:55;;;;;;;32.70;18.40;;;;;;;1.79;71.65;101143.85;218412;1261;140695;-67
2024/02/18 17:37:00;;;;;;;29.00;19.50;;;;;;;1.62;71.74;101136.30;217992;1257;140361;-68
2024/02/18 17:42:06;;;;;;;26.30;15.20;;;;;;;1.57;72.22;101129.36;217328;1257;140947;-67
2024/02/18 17:47:11;;;;;;;27.00;14.60;;;;;;;1.54;72.33;101125.48;218207;1258;140850;-67
2024/02/18 17:52:16;;;;;;;25.90;13.20;;;;;;;1.47;72.35;101114.83;217642;1257;141797;-66
2024/02/18 17:57:20;;;;;;;28.30;14.40;;;;;;;1.40;72.34;101100.54;217599;1258;140414;-66
2024/02/18 18:02:25;;;;;;;21.30;12.60;;;;;;;1.34;72.71;101084.59;218946;1259;140192;-70
2024/02/18 18:07:35;;;;;;;20.10;14.60;;;;;;;1.27;72.85;101072.95;220078;1259;141145;-70
2024/02/18 18:12:39;;;;;;;20.30;14.40;;;;;;;1.21;73.08;101064.80;218599;1257;142606;-67
2024/02/18 18:17:43;;;;;;;24.10;15.50;;;;;;;1.16;73.42;101055.14;219612;1257;141425;-70
2024/02/18 18:22:47;;;;;;;22.20;13.40;;;;;;;1.16;73.58;101056.22;218538;1257;140763;-69
2024/02/18 18:27:51;;;;;;;177.70;58.50;;;;;;;1.17;73.67;101045.46;217268;1258;141158;-66
2024/02/18 18:32:55;;;;;;;272.30;90.10;;;;;;;1.15;73.97;101035.10;217757;1261;141012;-69
2024/02/18 18:37:59;;;;;;;58.30;26.30;;;;;;;1.14;73.52;101028.36;217441;1259;142345;-68
2024/02/18 18:43:03;;;;;;;44.20;22.70;;;;;;;1.15;73.70;101029.66;218211;1257;140945;-69
2024/02/18 18:48:08;;;;;;;45.00;20.70;;;;;;;1.19;73.88;101023.92;217146;1257;140387;-70
2024/02/18 18:53:13;;;;;;;30.70;16.60;;;;;;;1.20;74.02;101021.18;218270;1257;141231;-69
2024/02/18 18:58:17;;;;;;;26.10;16.50;;;;;;;1.20;73.82;101015.41;217178;1257;140812;-69
2024/02/18 19:03:21;;;;;;;30.40;18.50;;;;;;;1.16;73.95;100993.48;217645;1257;140643;-67
2024/02/18 19:08:27;;;;;;;70.20;29.20;;;;;;;1.11;74.16;100987.17;218319;1258;140767;-67
2024/02/18 19:13:31;;;;;;;131.50;47.70;;;;;;;1.02;74.09;100968.86;217490;1257;142453;-66
2024/02/18 19:18:47;;;;;;;78.10;33.70;;;;;;;0.96;74.09;100962.21;217601;1258;140305;-67
2024/02/18 19:23:51;;;;;;;33.80;18.70;;;;;;;0.93;74.36;100956.42;217807;1257;140193;-69
2024/02/18 19:28:55;;;;;;;28.10;16.00;;;;;;;0.94;74.62;100956.00;217170;1257;140300;-66
2024/02/18 19:34:05;;;;;;;27.80;15.30;;;;;;;0.95;74.57;100955.66;217826;1259;140237;-67
2024/02/18 19:39:10;;;;;;;22.10;14.50;;;;;;;0.97;74.59;100952.54;218028;1257;140441;-70
2024/02/18 19:44:15;;;;;;;21.50;12.60;;;;;;;0.97;74.69;100941.52;218941;1258;140061;-68
2024/02/18 19:49:19;;;;;;;23.70;14.90;;;;;;;0.97;74.79;100935.41;217143;1259;140557;-68
2024/02/18 19:54:28;;;;;;;24.50;12.90;;;;;;;0.99;74.78;100931.20;218377;1257;140130;-69
2024/02/18 19:59:34;;;;;;;22.90;11.80;;;;;;;0.97;74.74;100919.10;218764;1259;140621;-72
2024/02/18 20:04:38;;;;;;;20.50;12.40;;;;;;;0.98;74.98;100913.90;218846;1260;140792;-71
2024/02/18 20:09:45;;;;;;;13.10;8.50;;;;;;;1.03;75.22;100901.79;217776;1257;143386;-67
2024/02/18 20:14:50;;;;;;;24.80;11.70;;;;;;;1.07;75.23;100896.83;218842;1258;140988;-67
2024/02/18 20:19:54;;;;;;;25.80;14.60;;;;;;;1.10;75.12;100895.02;217616;1257;140285;-68
2024/02/18 20:24:58;;;;;;;16.50;10.20;;;;;;;1.13;74.73;100890.00;219130;1258;140801;-67
2024/02/18 20:30:04;;;;;;;18.90;10.70;;;;;;;1.15;74.79;100881.20;218214;1259;141000;-67
2024/02/18 20:35:09;;;;;;;15.40;9.50;;;;;;;1.18;74.73;100876.39;217337;1257;142343;-68
2024/02/18 20:40:19;;;;;;;20.90;12.30;;;;;;;1.18;75.16;100871.30;217432;1257;139914;-67
2024/02/18 20:45:26;;;;;;;20.20;11.50;;;;;;;1.13;74.93;100868.41;217951;1258;140233;-67
2024/02/18 20:50:31;;;;;;;24.80;12.30;;;;;;;1.09;74.94;100859.04;218090;1259;140878;-68
2024/02/18 20:55:36;;;;;;;19.40;13.90;;;;;;;1.06;75.24;100846.23;218218;1257;141916;-69
2024/02/18 21:00:41;;;;;;;19.60;11.90;;;;;;;1.05;75.33;100839.48;218364;1259;141092;-68
2024/02/18 21:05:45;;;;;;;17.40;11.70;;;;;;;1.00;75.38;100834.97;217572;1261;140412;-68
2024/02/18 21:10:51;;;;;;;21.00;12.00;;;;;;;0.98;75.49;100828.21;217634;1258;141201;-67
2024/02/18 21:15:56;;;;;;;20.90;13.30;;;;;;;0.96;75.52;100820.67;217378;1258;141352;-67
2024/02/18 21:21:00;;;;;;;26.20;13.50;;;;;;;0.93;75.38;100816.57;218339;1259;140284;-68
2024/02/18 21:26:04;;;;;;;22.30;11.70;;;;;;;0.90;76.04;100812.14;217552;1258;140242;-67
2024/02/18 21:31:08;;;;;;;15.00;9.30;;;;;;;0.89;76.02;100815.77;217542;1257;142641;-67
2024/02/18 21:36:14;;;;;;;15.70;10.00;;;;;;;0.89;76.19;100808.46;217379;1257;140081;-66
2024/02/18 21:41:19;;;;;;;19.30;11.10;;;;;;;0.87;76.19;100795.65;217433;1257;140861;-68
2024/02/18 21:46:23;;;;;;;16.90;10.60;;;;;;;0.83;76.66;100795.20;219463;1259;140706;-68
2024/02/18 21:51:27;;;;;;;14.80;9.40;;;;;;;0.82;76.92;100789.14;218617;1259;141328;-68
2024/02/18 21:56:31;;;;;;;21.10;11.30;;;;;;;0.83;76.62;100782.23;217922;1260;140988;-67
2024/02/18 22:01:36;;;;;;;20.40;10.80;;;;;;;0.80;76.65;100779.34;219230;1259;141090;-68
2024/02/18 22:06:40;;;;;;;21.20;11.10;;;;;;;0.78;76.70;100775.05;218655;1257;140696;-67
2024/02/18 22:12:06;;;;;;;21.00;12.20;;;;;;;0.76;76.81;100768.43;217745;1259;140274;-68
2024/02/18 22:17:10;;;;;;;17.60;10.30;;;;;;;0.74;76.78;100765.62;217669;1258;141322;-68
2024/02/18 22:22:15;;;;;;;16.10;10.40;;;;;;;0.74;76.57;100761.91;217734;1257;140192;-68
2024/02/18 22:27:20;;;;;;;19.20;11.50;;;;;;;0.71;76.72;100753.45;217627;1258;140361;-71
2024/02/18 22:32:25;;;;;;;20.30;11.50;;;;;;;0.67;77.07;100740.86;217950;1259;140160;-68
2024/02/18 22:37:30;;;;;;;18.90;10.90;;;;;;;0.64;76.80;100734.33;217488;1261;140480;-68
2024/02/18 22:42:35;;;;;;;22.00;10.30;;;;;;;0.60;77.04;100724.21;217765;1257;140268;-69
2024/02/18 22:47:39;;;;;;;15.30;9.70;;;;;;;0.58;77.21;100714.14;217657;1261;142645;-69
2024/02/18 22:52:44;;;;;;;16.50;9.90;;;;;;;0.55;77.75;100701.13;217579;1260;140177;-72
2024/02/18 22:57:49;;;;;;;20.10;12.60;;;;;;;0.52;77.48;100702.08;217598;1257;141610;-71
2024/02/18 23:02:53;;;;;;;10.50;8.20;;;;;;;0.52;77.75;100702.66;218024;1261;140835;-70
2024/02/18 23:07:57;;;;;;;21.60;12.70;;;;;;;0.52;77.95;100691.61;217488;1257;140609;-69
2024/02/18 23:13:04;;;;;;;26.40;13.00;;;;;;;0.50;78.25;100689.91;218113;1258;141490;-69